Main page
METAR-TAF:

METAR-TAF

Airports :

Pembrey Airport

Pembrey, Wales

latitude: 51-43N, longitude: 004-22W, elevation: 3 m

Current weather observation

The report was made 1 hour and 15 minutes ago, at 17:50 UTC
Wind 12 kt from the South
Temperature 11°C
Humidity 87%
Pressure 992 hPa
Visibility 10 km or more

METAR: EGOP 241750Z AUTO 19012KT 9999 // FEW044/// BKN050/// 11/09 Q0992

Time: 20:05 (19:05 UTC)


TAF: missing

Weather observations and forecasts of more than 4000 airports (METAR and TAF reports).

The available stations are represented by yellow and red dots on the map.

Hover mouse over dot to see the name of the station.

Then click to see weather observations and forecasts.

To change the map : click on the green buttons with a black cross to zoom in, on the green button with a dash to zoom out, or on the green arrows for adjacent maps.


METAR-TAF: